Time;durP1;ratioP1;P1;durP2;ratioP2;P2;SDS_P1;SDS_P2;PMS_P1;PMS_P2;Temp;Humidity;BMP_temperature;BMP_pressure;BME280_temperature;BME280_humidity;BME280_pressure;Samples;Min_cycle;Max_cycle;Signal;HPM_P1;HPM_P2
2022/06/19 04:00:40;;;;;;;14.98;5.20;;;17.50;99.90;;;;;;5904017;23;20050;-74
2022/06/19 04:03:06;;;;;;;12.10;4.65;;;17.50;99.90;;;;;;5015385;28;20057;-74
2022/06/19 04:05:32;;;;;;;17.33;5.05;;;17.60;99.90;;;;;;5012706;28;20046;-74
2022/06/19 04:07:58;;;;;;;12.32;4.82;;;17.60;99.90;;;;;;5008528;28;20765;-74
2022/06/19 04:10:24;;;;;;;12.68;5.05;;;17.60;99.90;;;;;;4995296;28;20034;-74
2022/06/19 04:12:50;;;;;;;15.10;5.90;;;17.60;99.90;;;;;;4995346;28;20042;-74
2022/06/19 04:15:15;;;;;;;12.32;5.47;;;17.60;99.90;;;;;;5000998;28;20069;-73
2022/06/19 04:17:41;;;;;;;9.65;4.88;;;17.70;99.90;;;;;;5014895;28;20121;-73
2022/06/19 04:20:09;;;;;;;14.68;5.72;;;17.70;99.90;;;;;;5014578;28;20042;-73
2022/06/19 04:22:35;;;;;;;19.92;5.80;;;17.70;99.90;;;;;;5014882;28;20041;-73
2022/06/19 04:25:01;;;;;;;15.80;6.00;;;17.70;99.90;;;;;;5014887;28;20499;-73
2022/06/19 04:27:26;;;;;;;13.48;5.70;;;17.80;99.90;;;;;;5014237;28;20042;-73
2022/06/19 04:29:52;;;;;;;10.90;6.00;;;17.80;99.90;;;;;;5015018;28;20036;-73
2022/06/19 04:32:18;;;;;;;12.27;5.28;;;17.90;99.90;;;;;;5014668;28;20042;-73
2022/06/19 04:34:43;;;;;;;12.70;5.65;;;17.90;99.90;;;;;;5014788;28;20074;-73
2022/06/19 04:37:09;;;;;;;14.35;5.70;;;18.00;99.90;;;;;;5014546;28;20042;-73
2022/06/19 04:39:34;;;;;;;14.95;6.13;;;18.10;99.90;;;;;;5015117;28;20074;-73
2022/06/19 04:42:00;;;;;;;10.77;5.65;;;18.20;99.90;;;;;;5014613;28;20110;-73
2022/06/19 04:44:26;;;;;;;14.45;6.43;;;18.20;99.90;;;;;;5014350;28;20038;-73
2022/06/19 04:46:52;;;;;;;14.02;5.60;;;18.30;99.90;;;;;;5014385;28;20053;-73
2022/06/19 04:49:18;;;;;;;14.27;5.35;;;18.30;99.90;;;;;;5014251;28;20392;-73
2022/06/19 04:51:44;;;;;;;15.25;5.60;;;18.40;99.90;;;;;;5014090;28;20046;-73
2022/06/19 04:54:10;;;;;;;14.38;5.32;;;18.50;99.90;;;;;;5013140;28;20165;-73
2022/06/19 04:56:36;;;;;;;12.55;5.18;;;18.60;99.90;;;;;;5013983;28;20034;-73
2022/06/19 04:59:03;;;;;;;13.20;5.60;;;18.70;99.90;;;;;;5014344;28;20120;-73
2022/06/19 05:01:31;;;;;;;13.48;5.47;;;18.80;99.90;;;;;;5012504;28;20049;-73
2022/06/19 05:04:00;;;;;;;12.18;5.43;;;18.90;99.90;;;;;;5012757;28;20034;-73
2022/06/19 05:06:27;;;;;;;13.63;5.25;;;19.00;99.90;;;;;;5012686;28;20182;-73
2022/06/19 05:08:53;;;;;;;9.23;4.60;;;19.10;99.90;;;;;;5014307;28;20026;-73
2022/06/19 05:11:20;;;;;;;14.77;5.18;;;19.20;99.90;;;;;;5012871;28;20034;-73
2022/06/19 05:13:46;;;;;;;8.68;4.57;;;19.20;99.90;;;;;;5014346;28;20106;-73
2022/06/19 05:16:14;;;;;;;13.07;5.43;;;19.30;99.90;;;;;;5013743;28;20124;-74
2022/06/19 05:18:41;;;;;;;13.75;4.75;;;19.40;99.90;;;;;;5014194;28;20038;-73
2022/06/19 05:21:07;;;;;;;12.23;5.20;;;19.60;99.90;;;;;;5014082;28;20102;-73
2022/06/19 05:23:35;;;;;;;13.32;5.28;;;19.70;99.90;;;;;;5014690;28;20476;-74
2022/06/19 05:26:04;;;;;;;14.43;5.25;;;19.70;99.90;;;;;;5014268;28;20046;-74
2022/06/19 05:28:31;;;;;;;13.48;5.68;;;19.90;99.90;;;;;;5014328;28;20487;-74
2022/06/19 05:31:00;;;;;;;12.75;4.32;;;20.00;99.90;;;;;;5014356;28;20046;-74
2022/06/19 05:33:28;;;;;;;13.55;5.28;;;20.10;99.90;;;;;;5014150;28;20129;-73
2022/06/19 05:35:54;;;;;;;12.75;4.75;;;20.20;99.90;;;;;;5012933;28;20113;-73
2022/06/19 05:38:21;;;;;;;11.48;4.40;;;20.30;99.90;;;;;;5014229;28;20046;-74
2022/06/19 05:40:49;;;;;;;12.77;5.20;;;20.40;99.90;;;;;;5013910;28;20041;-73
2022/06/19 05:43:14;;;;;;;11.82;4.65;;;20.60;99.90;;;;;;5013848;28;20472;-74
2022/06/19 05:45:40;;;;;;;16.58;4.95;;;20.50;99.90;;;;;;5014141;28;20045;-74
2022/06/19 05:48:06;;;;;;;10.18;4.97;;;20.60;99.90;;;;;;5013838;28;20043;-73
2022/06/19 05:50:31;;;;;;;10.20;4.68;;;20.70;99.90;;;;;;5013980;28;20038;-73
2022/06/19 05:52:57;;;;;;;11.13;4.63;;;20.80;99.90;;;;;;5014456;28;20030;-74
2022/06/19 05:55:22;;;;;;;13.25;4.30;;;20.90;99.90;;;;;;5014021;28;20049;-74
2022/06/19 05:57:48;;;;;;;11.00;4.45;;;20.90;99.90;;;;;;5013625;28;20068;-74
2022/06/19 06:00:14;;;;;;;17.40;5.05;;;21.10;99.90;;;;;;5013650;28;20038;-74
2022/06/19 06:02:41;;;;;;;15.68;5.25;;;21.10;99.90;;;;;;5012535;28;20117;-73
2022/06/19 06:05:07;;;;;;;10.68;4.57;;;21.20;99.90;;;;;;5016228;28;20031;-74
2022/06/19 06:07:33;;;;;;;14.27;4.50;;;21.30;99.90;;;;;;5017011;28;20047;-73
2022/06/19 06:09:58;;;;;;;13.05;4.50;;;21.30;99.90;;;;;;5017788;28;20030;-73
2022/06/19 06:12:24;;;;;;;11.90;4.45;;;21.40;99.50;;;;;;5016949;28;20480;-74
2022/06/19 06:14:50;;;;;;;15.85;4.68;;;21.60;99.90;;;;;;5017185;28;20550;-74
2022/06/19 06:17:15;;;;;;;11.40;4.13;;;21.60;99.90;;;;;;5016574;28;20520;-74
2022/06/19 06:19:41;;;;;;;12.57;4.43;;;21.70;99.90;;;;;;5017105;28;20030;-74
2022/06/19 06:22:06;;;;;;;8.32;4.15;;;21.80;99.60;;;;;;5016721;28;20416;-76
2022/06/19 06:24:32;;;;;;;17.90;4.82;;;22.00;99.30;;;;;;5017189;28;20030;-74
2022/06/19 06:26:58;;;;;;;8.65;3.78;;;22.10;98.40;;;;;;5016492;28;20498;-74
2022/06/19 06:29:25;;;;;;;13.38;4.00;;;22.30;98.20;;;;;;5016982;28;20038;-74
2022/06/19 06:31:51;;;;;;;13.10;4.57;;;22.40;98.30;;;;;;5016899;28;20035;-73
2022/06/19 06:34:16;;;;;;;12.07;4.65;;;22.50;98.50;;;;;;5016668;28;20038;-73
2022/06/19 06:36:42;;;;;;;16.13;4.95;;;22.70;98.80;;;;;;5016563;28;20550;-73
2022/06/19 06:39:09;;;;;;;11.65;4.88;;;22.90;98.30;;;;;;5017119;28;20045;-74
2022/06/19 06:41:34;;;;;;;13.63;4.80;;;23.00;97.60;;;;;;5016011;28;20066;-73
2022/06/19 06:44:00;;;;;;;16.23;4.65;;;23.20;97.10;;;;;;5016937;28;20466;-74
2022/06/19 06:46:26;;;;;;;10.75;4.43;;;23.40;96.90;;;;;;5016283;28;20042;-74
2022/06/19 06:48:55;;;;;;;13.45;4.20;;;23.60;95.80;;;;;;5016264;28;20105;-73
2022/06/19 06:51:24;;;;;;;20.33;5.53;;;23.80;95.90;;;;;;5016628;28;20034;-74
2022/06/19 06:53:50;;;;;;;18.75;4.50;;;24.00;95.50;;;;;;5016614;28;20504;-73
2022/06/19 06:56:16;;;;;;;14.02;5.13;;;24.20;95.30;;;;;;5016392;28;20093;-73
2022/06/19 06:58:42;;;;;;;15.85;4.47;;;24.30;94.90;;;;;;5017164;28;20066;-74
2022/06/19 07:01:10;;;;;;;16.90;4.40;;;24.50;95.30;;;;;;5018546;28;20038;-74
2022/06/19 07:03:36;;;;;;;14.40;4.53;;;24.60;94.80;;;;;;5018826;28;20439;-75
2022/06/19 07:06:02;;;;;;;15.07;4.25;;;24.80;94.90;;;;;;5018861;28;20113;-75
2022/06/19 07:08:28;;;;;;;15.40;4.18;;;24.90;94.70;;;;;;5018879;28;20046;-74
2022/06/19 07:10:53;;;;;;;17.42;4.40;;;25.00;94.60;;;;;;5018518;28;20046;-75
2022/06/19 07:13:19;;;;;;;13.48;4.63;;;25.20;93.60;;;;;;5021105;28;20064;-77
2022/06/19 07:15:44;;;;;;;16.65;4.22;;;25.50;93.40;;;;;;5023227;28;20109;-75
2022/06/19 07:18:11;;;;;;;16.05;4.45;;;25.70;93.30;;;;;;5018500;28;20162;-75
2022/06/19 07:20:37;;;;;;;16.10;4.78;;;26.10;92.70;;;;;;5019422;28;20037;-75
2022/06/19 07:23:04;;;;;;;19.67;4.72;;;26.20;92.60;;;;;;5018857;28;20039;-75
2022/06/19 07:25:30;;;;;;;16.02;4.68;;;26.40;92.00;;;;;;5019670;28;20419;-77
2022/06/19 07:27:55;;;;;;;14.95;4.18;;;26.70;90.70;;;;;;5017756;28;20047;-76
2022/06/19 07:30:24;;;;;;;13.02;4.75;;;26.90;90.70;;;;;;5017176;28;20030;-75
2022/06/19 07:32:49;;;;;;;11.38;3.95;;;27.20;89.30;;;;;;5018255;28;20432;-76
2022/06/19 07:35:15;;;;;;;14.77;4.20;;;27.30;86.70;;;;;;5031986;28;20077;-75
2022/06/19 07:37:41;;;;;;;13.95;3.70;;;27.60;81.90;;;;;;5018931;28;20046;-75
2022/06/19 07:40:07;;;;;;;13.10;4.22;;;28.00;83.00;;;;;;5018946;28;20038;-75
2022/06/19 07:42:33;;;;;;;9.50;4.20;;;28.30;84.80;;;;;;5019063;28;20488;-74
2022/06/19 07:44:58;;;;;;;14.65;4.70;;;28.50;85.60;;;;;;5017356;28;20030;-74
2022/06/19 07:50:09;;;;;;;13.45;4.00;;;29.10;75.80;;;;;;5019652;28;20031;-76
2022/06/19 07:52:36;;;;;;;11.90;3.63;;;29.40;74.30;;;;;;5017662;28;20030;-73
2022/06/19 07:55:02;;;;;;;10.88;4.28;;;29.50;76.30;;;;;;5017197;28;20042;-74
2022/06/19 07:57:28;;;;;;;14.02;4.35;;;29.40;74.70;;;;;;5016550;28;20038;-74
2022/06/19 07:59:54;;;;;;;13.85;4.10;;;29.50;76.00;;;;;;5017419;28;20038;-74
2022/06/19 08:02:20;;;;;;;12.95;4.78;;;29.60;74.20;;;;;;5016843;28;20045;-74
2022/06/19 08:04:46;;;;;;;15.70;5.10;;;29.80;72.70;;;;;;5017681;28;20037;-73
2022/06/19 08:07:15;;;;;;;12.93;5.18;;;30.10;70.70;;;;;;5016683;28;20042;-74
2022/06/19 08:09:41;;;;;;;14.35;5.18;;;30.40;70.00;;;;;;5017370;28;20045;-73
2022/06/19 08:12:07;;;;;;;15.52;5.05;;;30.50;69.00;;;;;;5017140;28;20444;-73
2022/06/19 08:14:33;;;;;;;18.35;5.38;;;30.50;66.20;;;;;;5016722;28;20038;-74
2022/06/19 08:16:58;;;;;;;16.42;5.63;;;30.60;66.20;;;;;;5016560;28;20045;-74
2022/06/19 08:19:27;;;;;;;14.02;5.45;;;30.50;68.40;;;;;;5023465;28;20068;-74
2022/06/19 08:21:52;;;;;;;13.80;5.22;;;30.60;67.10;;;;;;5031085;28;20038;-74
2022/06/19 08:24:18;;;;;;;19.30;5.45;;;30.90;68.10;;;;;;5019251;28;20030;-73
2022/06/19 08:26:44;;;;;;;14.82;5.60;;;31.20;65.00;;;;;;5015442;28;20043;-74
2022/06/19 08:29:10;;;;;;;12.80;6.15;;;31.30;64.20;;;;;;5014980;28;20086;-73
2022/06/19 08:31:36;;;;;;;12.23;5.38;;;31.20;63.40;;;;;;5023584;28;20042;-74
2022/06/19 08:34:02;;;;;;;14.20;5.40;;;31.20;63.70;;;;;;5035273;28;20030;-74
2022/06/19 08:36:29;;;;;;;20.83;5.90;;;31.40;64.20;;;;;;5029112;28;20042;-74
2022/06/19 08:38:59;;;;;;;14.50;5.93;;;31.60;64.10;;;;;;5013808;28;20045;-74
2022/06/19 08:41:40;;;;;;;19.38;6.00;;;31.90;64.10;;;;;;5014482;28;20125;-74
2022/06/19 08:44:12;;;;;;;16.63;5.57;;;31.90;63.90;;;;;;5017379;28;20038;-75
2022/06/19 08:47:14;;;;;;;14.25;5.70;;;32.10;63.80;;;;;;5015505;28;20070;-75
2022/06/19 08:49:55;;;;;;;11.15;5.78;;;32.30;62.90;;;;;;5015803;28;20034;-74
2022/06/19 08:52:32;;;;;;;16.63;5.80;;;32.60;62.80;;;;;;4995540;28;20058;-74
2022/06/19 08:55:25;;;;;;;13.60;5.75;;;32.60;62.00;;;;;;4995474;28;20065;-74
2022/06/19 08:58:13;;;;;;;16.73;5.90;;;32.70;60.70;;;;;;4994056;28;20504;-77
2022/06/19 09:01:10;;;;;;;15.48;6.32;;;32.60;60.70;;;;;;5003608;28;20038;-75
2022/06/19 09:06:39;;;;;;;18.42;5.53;;;32.90;62.00;;;;;;5013889;28;20594;-71
2022/06/19 09:09:10;;;;;;;13.40;5.65;;;33.10;61.20;;;;;;5014667;28;20039;-75
2022/06/19 09:11:46;;;;;;;19.20;6.47;;;33.30;60.00;;;;;;5014264;28;20038;-74
2022/06/19 09:14:20;;;;;;;14.93;5.75;;;33.20;60.60;;;;;;5014874;28;20027;-74
2022/06/19 09:16:56;;;;;;;12.00;6.00;;;33.20;60.50;;;;;;5014448;28;20069;-80
2022/06/19 09:19:57;;;;;;;13.05;5.97;;;33.50;61.30;;;;;;5014061;28;20041;-73
2022/06/19 09:22:29;;;;;;;10.07;5.47;;;33.70;59.50;;;;;;4994758;28;20074;-73
2022/06/19 09:25:27;;;;;;;13.00;6.28;;;33.80;58.20;;;;;;5005185;28;20077;-74
2022/06/19 09:28:14;;;;;;;14.15;5.90;;;33.80;58.60;;;;;;5010218;28;20113;-73
2022/06/19 09:30:52;;;;;;;13.48;5.55;;;34.00;54.30;;;;;;5014056;28;20110;-74
2022/06/19 09:33:32;;;;;;;10.30;5.65;;;34.00;53.30;;;;;;5014583;28;20113;-73
2022/06/19 09:36:36;;;;;;;9.85;6.20;;;34.10;52.90;;;;;;5013556;28;20034;-74
2022/06/19 09:39:04;;;;;;;14.80;5.45;;;34.30;51.50;;;;;;4993132;28;20109;-74
2022/06/19 09:41:50;;;;;;;17.08;5.97;;;34.50;51.70;;;;;;5017083;28;20409;-73
2022/06/19 09:44:45;;;;;;;11.38;5.80;;;34.40;52.10;;;;;;5017950;28;20045;-72
2022/06/19 09:47:18;;;;;;;16.45;5.47;;;34.30;50.50;;;;;;5012562;28;20054;-72
2022/06/19 09:49:54;;;;;;;14.85;6.03;;;34.60;50.30;;;;;;5017253;28;20534;-72
2022/06/19 09:52:50;;;;;;;10.32;5.45;;;34.50;48.60;;;;;;5017074;28;20042;-72
2022/06/19 09:55:38;;;;;;;12.40;5.63;;;34.50;50.60;;;;;;4987621;28;20046;-73
2022/06/19 09:58:14;;;;;;;8.88;5.22;;;34.50;49.70;;;;;;5017616;28;20030;-73
2022/06/19 10:00:43;;;;;;;13.18;5.53;;;34.90;50.90;;;;;;5016735;28;20496;-73
2022/06/19 10:03:31;;;;;;;13.32;5.40;;;35.10;48.50;;;;;;5015784;28;20463;-73
2022/06/19 10:06:33;;;;;;;12.43;6.00;;;35.10;48.40;;;;;;5016804;28;20053;-74
2022/06/19 10:09:09;;;;;;;13.15;5.55;;;35.20;48.60;;;;;;5014569;28;20078;-73
2022/06/19 10:11:41;;;;;;;8.48;5.05;;;35.30;47.90;;;;;;5016659;28;20496;-73
2022/06/19 10:14:32;;;;;;;11.73;5.60;;;35.50;47.80;;;;;;5017177;28;20038;-73
2022/06/19 10:17:09;;;;;;;11.98;5.88;;;35.60;48.40;;;;;;5017547;28;20035;-73
2022/06/19 10:19:34;;;;;;;12.73;5.13;;;35.50;47.70;;;;;;5016296;28;20085;-72
2022/06/19 10:22:15;;;;;;;10.65;5.28;;;35.50;47.80;;;;;;5016719;28;20089;-72
2022/06/19 10:25:04;;;;;;;11.95;5.07;;;35.50;48.70;;;;;;5017057;28;20035;-72
2022/06/19 10:27:42;;;;;;;10.65;5.20;;;35.60;48.10;;;;;;5016456;28;20408;-72
2022/06/19 10:30:14;;;;;;;14.38;5.03;;;35.30;47.30;;;;;;5016512;28;20065;-72
2022/06/19 10:33:07;;;;;;;11.43;5.63;;;35.50;47.20;;;;;;5017066;28;20041;-72
2022/06/19 10:35:56;;;;;;;10.05;5.07;;;35.70;47.00;;;;;;5016359;28;20045;-73
2022/06/19 10:38:45;;;;;;;10.85;5.18;;;35.70;46.40;;;;;;5015653;28;20038;-73
2022/06/19 10:42:00;;;;;;;12.68;5.30;;;35.60;47.90;;;;;;5016067;28;20117;-72
2022/06/19 10:44:24;;;;;;;9.93;4.80;;;35.80;47.40;;;;;;5016329;28;20483;-73
2022/06/19 10:47:05;;;;;;;10.95;5.38;;;35.70;46.90;;;;;;5016331;28;20099;-73
2022/06/19 10:49:40;;;;;;;9.55;5.05;;;35.80;45.70;;;;;;5016535;28;20061;-73
2022/06/19 10:52:23;;;;;;;10.43;5.10;;;36.10;45.40;;;;;;5016165;28;20082;-73
2022/06/19 10:54:53;;;;;;;13.98;5.63;;;36.20;45.60;;;;;;5016504;28;20066;-73
2022/06/19 10:57:59;;;;;;;15.55;5.20;;;36.30;45.30;;;;;;5016167;28;20042;-73
2022/06/19 11:00:24;;;;;;;10.90;5.07;;;36.20;45.20;;;;;;4975272;28;20046;-73
2022/06/19 11:05:50;;;;;;;10.20;5.28;;;36.40;47.10;;;;;;4999130;28;20062;-74
2022/06/19 11:08:18;;;;;;;14.18;5.57;;;36.80;45.60;;;;;;5035864;28;20072;-74
2022/06/19 11:10:56;;;;;;;14.02;5.25;;;36.70;44.50;;;;;;5019632;28;20089;-73
2022/06/19 11:13:21;;;;;;;9.32;5.00;;;36.70;43.90;;;;;;5027674;28;20033;-73
2022/06/19 11:16:13;;;;;;;15.70;5.70;;;36.90;45.30;;;;;;5036037;28;20084;-72
2022/06/19 11:18:49;;;;;;;16.13;5.75;;;36.90;45.40;;;;;;5019973;28;20516;-73
2022/06/19 11:21:20;;;;;;;11.60;5.47;;;36.90;44.80;;;;;;5033013;28;20052;-75
2022/06/19 11:23:48;;;;;;;12.00;5.68;;;36.70;46.60;;;;;;5016208;28;20026;-74
2022/06/19 11:26:16;;;;;;;10.18;5.55;;;36.70;45.10;;;;;;5015192;28;20546;-72
2022/06/19 11:28:47;;;;;;;12.93;5.40;;;36.50;45.10;;;;;;5023205;28;20120;-74
2022/06/19 11:31:18;;;;;;;13.77;6.13;;;36.30;45.10;;;;;;5035524;28;20038;-72
2022/06/19 11:33:46;;;;;;;13.20;5.35;;;36.40;45.00;;;;;;5015956;28;20538;-72
2022/06/19 11:36:32;;;;;;;12.20;5.15;;;36.50;44.60;;;;;;5015733;28;20519;-72
2022/06/19 11:38:58;;;;;;;14.52;5.85;;;36.60;44.30;;;;;;5016125;28;20065;-72
2022/06/19 11:41:30;;;;;;;12.02;5.35;;;36.70;44.30;;;;;;5015597;28;20040;-72
2022/06/19 11:44:25;;;;;;;11.88;5.30;;;36.70;45.40;;;;;;5015759;28;20038;-72
2022/06/19 11:46:54;;;;;;;11.57;5.82;;;37.00;46.70;;;;;;5015287;28;20787;-72
2022/06/19 11:49:28;;;;;;;9.38;5.00;;;36.90;44.00;;;;;;5015819;28;20062;-72
2022/06/19 11:52:00;;;;;;;11.80;5.03;;;36.60;44.40;;;;;;5014065;28;20069;-72
2022/06/19 11:54:32;;;;;;;14.88;5.68;;;36.50;45.10;;;;;;5015485;28;20026;-72
2022/06/19 11:56:58;;;;;;;8.88;5.15;;;36.60;46.40;;;;;;5015150;28;20069;-72
2022/06/19 11:59:44;;;;;;;13.75;5.53;;;37.00;45.00;;;;;;5015468;28;20034;-72
2022/06/19 12:02:27;;;;;;;14.45;5.53;;;37.10;45.50;;;;;;5014442;28;20113;-72
2022/06/19 12:04:59;;;;;;;13.77;5.60;;;37.00;45.70;;;;;;5015655;28;20086;-72
2022/06/19 12:07:31;;;;;;;10.52;5.68;;;37.00;45.20;;;;;;5014778;28;20042;-73
2022/06/19 12:10:03;;;;;;;15.73;5.65;;;37.00;46.40;;;;;;5015511;28;20030;-73
2022/06/19 12:12:32;;;;;;;11.77;5.60;;;37.40;46.60;;;;;;5014965;28;20034;-72
2022/06/19 12:15:20;;;;;;;13.32;6.10;;;37.10;45.20;;;;;;5015175;28;20030;-72
2022/06/19 12:17:46;;;;;;;8.55;5.50;;;36.80;46.20;;;;;;5015105;28;20041;-72
2022/06/19 12:20:12;;;;;;;10.95;5.35;;;37.00;45.10;;;;;;5014648;28;20066;-72
2022/06/19 12:22:44;;;;;;;9.75;5.38;;;37.10;45.50;;;;;;5015035;28;20382;-73
2022/06/19 12:25:33;;;;;;;10.85;5.72;;;37.40;45.80;;;;;;5014881;28;20511;-73
2022/06/19 12:28:02;;;;;;;10.25;5.82;;;37.50;43.90;;;;;;5015039;28;20125;-72
2022/06/19 12:30:33;;;;;;;11.40;5.38;;;37.80;44.70;;;;;;5014682;28;20038;-72
2022/06/19 12:33:02;;;;;;;11.40;5.25;;;37.60;43.10;;;;;;5015165;28;20484;-72
2022/06/19 12:35:43;;;;;;;13.02;5.82;;;37.80;44.20;;;;;;5013482;28;20038;-72
2022/06/19 12:38:12;;;;;;;16.15;5.65;;;37.90;43.60;;;;;;5014862;28;20045;-72
2022/06/19 12:41:12;;;;;;;13.75;5.85;;;38.00;43.90;;;;;;5014597;28;20034;-72
2022/06/19 12:43:49;;;;;;;13.52;5.43;;;37.70;43.10;;;;;;5003606;28;20141;-72
2022/06/19 12:46:42;;;;;;;13.10;5.55;;;37.90;42.90;;;;;;5014474;28;20527;-72
2022/06/19 12:49:29;;;;;;;12.57;5.65;;;38.10;42.10;;;;;;5013285;28;20405;-72
2022/06/19 12:52:02;;;;;;;12.77;5.90;;;38.20;43.50;;;;;;5014505;28;20038;-72
2022/06/19 12:54:42;;;;;;;11.32;5.10;;;38.30;43.00;;;;;;5014818;28;20463;-72
2022/06/19 12:57:37;;;;;;;10.65;5.75;;;38.50;43.30;;;;;;5014544;28;20041;-72
2022/06/19 13:00:09;;;;;;;13.95;5.30;;;38.80;44.30;;;;;;5014950;28;20034;-72
2022/06/19 13:02:46;;;;;;;16.35;6.35;;;38.70;44.40;;;;;;5014426;28;20042;-72
2022/06/19 13:05:27;;;;;;;12.68;6.28;;;38.50;45.30;;;;;;5013277;28;20526;-72
2022/06/19 13:08:05;;;;;;;13.65;5.95;;;38.70;45.70;;;;;;5014485;28;20065;-72
2022/06/19 13:10:59;;;;;;;12.20;6.63;;;39.20;43.60;;;;;;5014288;28;20042;-72
2022/06/19 13:13:39;;;;;;;12.93;6.20;;;39.60;44.10;;;;;;5014235;28;20888;-72
2022/06/19 13:16:18;;;;;;;11.02;5.55;;;39.60;43.00;;;;;;5017903;28;20030;-72
2022/06/19 13:19:00;;;;;;;13.77;5.95;;;39.60;44.50;;;;;;5016655;28;20115;-72
2022/06/19 13:21:42;;;;;;;13.20;6.18;;;39.90;43.20;;;;;;5016478;28;20069;-72
2022/06/19 13:24:24;;;;;;;13.65;5.97;;;40.50;42.00;;;;;;4999644;28;20039;-72
2022/06/19 13:27:14;;;;;;;12.98;5.63;;;40.80;41.20;;;;;;5017423;28;20117;-72
2022/06/19 13:29:53;;;;;;;15.07;5.35;;;41.50;41.10;;;;;;5018252;28;20038;-72
2022/06/19 13:32:36;;;;;;;11.02;5.85;;;42.30;41.00;;;;;;5017620;28;20027;-72
2022/06/19 13:35:11;;;;;;;11.65;6.20;;;42.40;39.70;;;;;;5016373;28;20066;-72
2022/06/19 13:37:47;;;;;;;12.88;5.70;;;42.80;38.50;;;;;;5017563;28;20085;-72
2022/06/19 13:40:17;;;;;;;12.18;5.93;;;42.20;39.00;;;;;;5017531;28;20101;-72
2022/06/19 13:42:54;;;;;;;11.02;5.55;;;42.10;39.60;;;;;;5017509;28;20038;-72
2022/06/19 13:45:26;;;;;;;12.30;5.30;;;41.90;38.80;;;;;;5017816;28;20038;-73
2022/06/19 13:48:06;;;;;;;11.48;5.57;;;42.40;39.30;;;;;;5017138;28;20122;-74
2022/06/19 13:50:41;;;;;;;10.52;5.65;;;42.90;38.40;;;;;;5016060;28;20093;-73
2022/06/19 13:53:19;;;;;;;12.23;5.38;;;42.90;36.90;;;;;;5017623;28;20431;-74
2022/06/19 13:55:44;;;;;;;17.85;5.90;;;42.80;37.30;;;;;;5017688;28;20333;-73
2022/06/19 13:58:18;;;;;;;11.35;5.22;;;43.70;37.40;;;;;;5017515;28;20396;-73
2022/06/19 14:00:55;;;;;;;12.50;5.35;;;43.90;37.40;;;;;;5016760;28;20563;-73
2022/06/19 14:07:11;;;;;;;12.05;5.63;;;44.70;39.40;;;;;;5014144;28;20031;-73
2022/06/19 14:10:16;;;;;;;12.38;5.57;;;44.00;39.80;;;;;;5017015;28;20038;-73
2022/06/19 14:12:53;;;;;;;12.90;6.10;;;44.20;38.30;;;;;;5016701;28;20030;-73
2022/06/19 14:15:49;;;;;;;11.68;6.00;;;43.70;39.20;;;;;;5017302;28;20066;-73
2022/06/19 14:18:44;;;;;;;11.57;5.85;;;44.60;37.50;;;;;;5017126;28;20507;-73
2022/06/19 14:21:29;;;;;;;13.05;5.75;;;45.80;36.50;;;;;;5016834;28;20030;-73
2022/06/19 14:24:07;;;;;;;11.88;6.45;;;46.80;34.00;;;;;;5017284;28;20034;-73
2022/06/19 14:26:51;;;;;;;13.93;5.80;;;47.10;34.40;;;;;;5016136;28;20038;-73
2022/06/19 14:29:40;;;;;;;10.23;5.90;;;46.50;33.70;;;;;;5017228;28;20038;-73
2022/06/19 14:32:12;;;;;;;15.05;5.78;;;46.20;37.10;;;;;;5016519;28;20068;-73
2022/06/19 14:34:47;;;;;;;11.43;5.80;;;46.10;36.20;;;;;;5017010;28;20038;-73
2022/06/19 14:37:38;;;;;;;12.10;6.10;;;46.30;33.40;;;;;;5016287;28;20129;-72
2022/06/19 14:40:26;;;;;;;14.35;5.85;;;46.00;34.20;;;;;;4997879;28;20468;-72
2022/06/19 14:43:02;;;;;;;10.93;6.00;;;46.70;33.90;;;;;;5016273;28;20492;-72
2022/06/19 14:45:44;;;;;;;10.73;6.20;;;46.60;34.60;;;;;;5016595;28;20027;-72
2022/06/19 14:48:36;;;;;;;11.65;5.82;;;47.20;34.70;;;;;;5016320;28;20555;-72
2022/06/19 14:51:01;;;;;;;8.63;5.90;;;47.90;31.80;;;;;;5016753;28;20038;-72
2022/06/19 14:53:42;;;;;;;8.13;5.90;;;48.00;32.50;;;;;;5014913;28;20030;-72
2022/06/19 14:56:29;;;;;;;10.25;6.35;;;48.40;32.60;;;;;;5016092;28;20026;-72
2022/06/19 14:58:56;;;;;;;12.70;6.70;;;48.60;31.60;;;;;;5016406;28;20034;-72
2022/06/19 15:01:29;;;;;;;14.02;6.53;;;47.90;32.90;;;;;;5016028;28;20133;-72
2022/06/19 15:04:06;;;;;;;12.43;6.43;;;47.70;34.00;;;;;;4995088;28;20491;-72
2022/06/19 15:06:57;;;;;;;8.98;6.28;;;48.20;32.00;;;;;;4996805;28;20026;-72
2022/06/19 15:09:45;;;;;;;18.35;6.57;;;48.60;31.80;;;;;;4997007;28;20038;-72
2022/06/19 15:12:22;;;;;;;8.57;5.60;;;48.40;30.20;;;;;;4996428;28;20090;-72
2022/06/19 15:15:02;;;;;;;9.38;5.70;;;48.10;34.00;;;;;;4996937;28;20034;-72
2022/06/19 15:17:41;;;;;;;17.10;6.95;;;48.10;31.60;;;;;;4996400;28;20035;-72
2022/06/19 15:20:25;;;;;;;12.10;5.55;;;48.50;30.10;;;;;;4996580;28;20086;-72
2022/06/19 15:23:34;;;;;;;11.07;6.28;;;48.70;30.00;;;;;;5000786;28;20034;-72
2022/06/19 15:26:11;;;;;;;8.70;5.88;;;48.80;30.30;;;;;;5016129;28;20036;-72
2022/06/19 15:28:43;;;;;;;15.23;6.35;;;48.60;30.20;;;;;;5016156;28;20385;-72
2022/06/19 15:31:21;;;;;;;10.93;6.13;;;49.70;30.00;;;;;;4996013;28;20035;-72
2022/06/19 15:33:58;;;;;;;10.90;5.88;;;49.20;29.30;;;;;;4996511;28;20093;-72
2022/06/19 15:36:30;;;;;;;11.27;5.47;;;48.30;30.30;;;;;;4995448;28;20031;-72
2022/06/19 15:39:18;;;;;;;12.45;5.78;;;48.50;29.30;;;;;;4996175;28;20118;-72
2022/06/19 15:42:02;;;;;;;10.00;5.65;;;47.80;29.70;;;;;;4996147;28;20033;-72
2022/06/19 15:44:32;;;;;;;10.02;5.60;;;47.50;31.50;;;;;;4995875;28;20560;-72
2022/06/19 15:47:02;;;;;;;10.88;5.10;;;47.40;31.00;;;;;;5014817;28;20049;-72
2022/06/19 15:49:44;;;;;;;10.95;5.57;;;47.20;30.50;;;;;;5015896;28;20057;-72
2022/06/19 15:52:18;;;;;;;11.85;5.78;;;47.50;32.00;;;;;;5015815;28;20030;-72
2022/06/19 15:54:46;;;;;;;10.13;5.35;;;47.60;30.20;;;;;;5015187;28;20049;-72
2022/06/19 15:57:26;;;;;;;11.13;5.38;;;47.90;30.00;;;;;;5015348;28;20038;-72
2022/06/19 15:59:59;;;;;;;12.77;5.68;;;47.50;31.20;;;;;;5015620;28;20073;-72
2022/06/19 16:02:28;;;;;;;10.48;5.75;;;47.30;31.70;;;;;;5015632;28;20062;-72
2022/06/19 16:04:57;;;;;;;11.70;5.53;;;47.80;30.20;;;;;;5015333;28;20069;-72
2022/06/19 16:07:34;;;;;;;13.07;5.20;;;47.10;31.40;;;;;;5015201;28;20044;-72
2022/06/19 16:10:19;;;;;;;13.60;5.72;;;47.40;30.50;;;;;;5015695;28;20088;-74
2022/06/19 16:13:03;;;;;;;10.25;5.47;;;47.40;30.00;;;;;;5014847;28;20039;-74
2022/06/19 16:15:29;;;;;;;12.00;4.90;;;47.60;31.10;;;;;;5016027;28;20034;-74
2022/06/19 16:18:00;;;;;;;13.25;5.13;;;47.50;30.50;;;;;;5014745;28;20042;-74
2022/06/19 16:20:28;;;;;;;13.52;5.57;;;47.50;31.80;;;;;;5014876;28;20089;-74
2022/06/19 16:22:54;;;;;;;10.23;6.28;;;47.80;31.40;;;;;;5014770;28;20482;-74
2022/06/19 16:25:38;;;;;;;11.43;5.18;;;47.20;31.40;;;;;;5015285;28;20035;-74
2022/06/19 16:28:18;;;;;;;11.27;5.07;;;46.50;30.70;;;;;;5014947;28;20040;-74
2022/06/19 16:30:54;;;;;;;12.50;5.25;;;45.50;31.70;;;;;;5015005;28;20030;-74
2022/06/19 16:33:22;;;;;;;11.38;5.30;;;43.80;34.60;;;;;;5013850;28;20034;-74
2022/06/19 16:44:41;;;;;;;12.77;4.90;;;39.30;36.60;;;;;;5014585;28;20030;-74
2022/06/19 16:47:08;;;;;;;9.05;4.70;;;38.90;38.40;;;;;;5014308;28;20518;-74
2022/06/19 16:49:41;;;;;;;16.77;5.63;;;38.70;37.40;;;;;;5014718;28;20080;-74
2022/06/19 16:52:28;;;;;;;16.27;5.22;;;38.10;38.30;;;;;;5014727;28;20084;-74
2022/06/19 16:55:04;;;;;;;15.00;5.38;;;37.80;40.30;;;;;;5014152;28;20069;-74
2022/06/19 16:57:35;;;;;;;14.60;4.90;;;37.40;38.80;;;;;;5014380;28;20046;-73
2022/06/19 17:00:34;;;;;;;14.43;5.45;;;37.20;39.30;;;;;;5013510;28;20032;-74
2022/06/19 17:03:07;;;;;;;12.55;4.80;;;37.00;40.60;;;;;;5011540;28;20503;-74
2022/06/19 17:05:35;;;;;;;12.90;5.18;;;37.00;41.00;;;;;;5015000;28;20034;-74
2022/06/19 17:10:49;;;;;;;9.77;5.47;;;36.60;40.80;;;;;;5014388;28;20038;-73
2022/06/19 17:13:20;;;;;;;13.65;5.47;;;36.60;41.30;;;;;;5014704;28;20092;-73
2022/06/19 17:15:51;;;;;;;9.10;4.90;;;36.60;44.30;;;;;;5015039;28;20065;-74
2022/06/19 17:18:19;;;;;;;12.07;4.90;;;36.40;45.30;;;;;;5014217;28;20046;-74
2022/06/19 17:20:46;;;;;;;11.50;4.82;;;36.30;42.70;;;;;;5014144;28;20134;-74
2022/06/19 17:23:20;;;;;;;12.68;4.93;;;36.40;42.20;;;;;;5014396;28;20081;-73
2022/06/19 17:25:48;;;;;;;14.52;5.18;;;36.40;42.40;;;;;;5014261;28;20031;-73
2022/06/19 17:28:15;;;;;;;14.23;4.65;;;36.30;43.60;;;;;;5014208;28;20077;-74
2022/06/19 17:31:03;;;;;;;10.90;4.88;;;36.10;43.90;;;;;;5014841;28;20030;-74
2022/06/19 17:33:31;;;;;;;14.77;5.50;;;36.00;45.50;;;;;;5014995;28;20031;-74
2022/06/19 17:36:02;;;;;;;13.68;5.35;;;35.80;47.10;;;;;;5015044;28;20034;-74